Airfield :
LOGIN :

Register | Disclaimer

   EN    FR    IT 

 










Legend :    VFR   Marginal VFR   IFR   Intensive IFR   Very Intensive IFR
Visi :
Ceiling :
>= 8 km
>= 3000ft
5 to 8 km
1000 to 3000 ft
1500m to 5 km
500 to 1000 ft
800 to 1500m
200 to 500 ft
< 800m
< 200 ft
Symbols :   Thunderstorms  Fog  Heavy snow  Heavy precipitations  Wind > 20 kt
SIGMETs :     Misc.  Thunderstorms  Icing  Turbulence  Mountain Waves  Volcanic Ashes






- Airport Elevation : 302 ft


LFPM - Melun Villaroche

CURRENT METAR :
  • 291100Z AUTO 17010KT 5000 -RADZ BR OVC004 08/08 Q1011

EXPIRED METARs :
  • 291030Z AUTO 18009KT 4300 DZ BR OVC004 08/08 Q1011
  • 291000Z AUTO 17009KT 4100 BR OVC004 08/08 Q1011
  • 290930Z AUTO 17010KT 4100 -DZ BR OVC004 08/08 Q1012
  • 290900Z AUTO 18009KT 9000 OVC004 07/07 Q1012
  • 290830Z AUTO 17009KT 4200 DZ BR OVC004 07/07 Q1013
  • 290800Z AUTO 17010KT 3900 DZ BR OVC006 07/06 Q1013
  • 290730Z AUTO 17010KT 3800 -RADZ BR BKN007 BKN013 OVC020 07/06 Q1013
  • 290700Z AUTO 17009KT 9999 OVC009 07/06 Q1013
  • 290630Z AUTO 17008KT 9999 -RADZ BKN010 BKN015 BKN021 07/06 Q1014

Expired Forecast.
ATIS : +33 1 64 14 28 44



MET'MAP, your aeronautical weather chart ! - Copyright ORBIFLY December 2007 - Disclaimer

ORBIFLY MET'MAP TEAM :

Programming & Development : Alexandra Zaïnal
Original concept : Baudouin d'Aumeries
Technical & hardware support : Manuel Goepfert
Assistance : Marc-Olivier Méhu




SOURCES & CREDITS :

   NOAA